createdAt,value
2023-03-13T00:00:24.447Z,2.17
2023-03-13T00:05:27.283Z,2.17
2023-03-13T00:10:31.438Z,1.20
2023-03-13T00:15:34.784Z,2.35
2023-03-13T00:20:37.610Z,2.17
2023-03-13T00:25:41.813Z,2.03
2023-03-13T00:30:44.643Z,1.27
2023-03-13T00:35:47.565Z,1.63
2023-03-13T00:40:59.186Z,1.02
2023-03-13T00:46:02.493Z,1.00
2023-03-13T00:51:06.584Z,2.00
2023-03-13T00:56:12.656Z,2.08
2023-03-13T01:01:20.393Z,1.13
2023-03-13T01:06:25.887Z,1.73
2023-03-13T01:11:32.086Z,1.45
2023-03-13T01:16:36.960Z,1.38
2023-03-13T01:21:39.801Z,1.15
2023-03-13T01:26:44.021Z,1.33
2023-03-13T01:31:47.024Z,0.70
2023-03-13T01:36:52.279Z,0.93
2023-03-13T01:41:56.461Z,1.08
2023-03-13T01:46:59.258Z,2.00
2023-03-13T01:52:05.201Z,1.08
2023-03-13T01:57:14.915Z,0.60
2023-03-13T02:02:19.308Z,1.23
2023-03-13T02:07:28.653Z,2.50
2023-03-13T02:12:36.010Z,0.75
2023-03-13T02:17:40.648Z,0.63
2023-03-13T02:22:49.123Z,0.80
2023-03-13T02:27:56.233Z,1.10
2023-03-13T02:32:59.222Z,0.98
2023-03-13T02:38:07.254Z,0.90
2023-03-13T02:43:15.664Z,0.50
2023-03-13T02:48:18.526Z,0.93
2023-03-13T02:53:21.352Z,2.97
2023-03-13T02:58:26.661Z,0.82
2023-03-13T03:03:29.502Z,1.45
2023-03-13T03:08:32.627Z,0.88
2023-03-13T03:13:36.856Z,0.98
2023-03-13T03:18:39.958Z,0.50
2023-03-13T03:23:42.930Z,0.73
2023-03-13T03:28:47.600Z,1.23
2023-03-13T03:33:50.447Z,0.50
2023-03-13T03:38:54.094Z,0.60
2023-03-13T03:43:58.293Z,0.57
2023-03-13T03:49:01.199Z,0.90
2023-03-13T03:54:04.122Z,0.70
2023-03-13T03:59:08.325Z,0.75
2023-03-13T04:04:11.205Z,0.50
2023-03-13T04:09:14.061Z,0.85
2023-03-13T04:14:18.440Z,1.60
2023-03-13T04:19:21.262Z,0.45
2023-03-13T04:24:24.132Z,0.40
2023-03-13T04:29:28.543Z,1.20
2023-03-13T04:34:31.577Z,0.50
2023-03-13T04:39:34.426Z,0.45
2023-03-13T04:44:38.831Z,0.50
2023-03-13T04:49:41.627Z,0.75
2023-03-13T04:54:44.476Z,1.13
2023-03-13T04:59:48.846Z,0.45
2023-03-13T05:04:52.385Z,0.40
2023-03-13T05:09:55.344Z,0.98
2023-03-13T05:14:59.584Z,0.40
2023-03-13T05:20:02.390Z,0.65
2023-03-13T05:25:06.097Z,1.00
2023-03-13T05:30:12.017Z,0.50
2023-03-13T05:35:14.986Z,0.30
2023-03-13T05:40:18.095Z,0.73
2023-03-13T05:45:22.259Z,0.30
2023-03-13T05:50:25.412Z,0.70
2023-03-13T05:55:28.232Z,1.27
2023-03-13T06:00:32.455Z,0.40
2023-03-13T06:05:35.281Z,0.77
2023-03-13T06:10:38.095Z,1.17
2023-03-13T06:15:42.381Z,6.03
2023-03-13T06:20:45.382Z,2.80
2023-03-13T06:25:49.306Z,1.63
2023-03-13T06:30:53.460Z,2.22
2023-03-13T06:35:57.136Z,1.17
2023-03-13T06:41:00.199Z,1.23
2023-03-13T06:46:06.398Z,3.47
2023-03-13T06:51:12.720Z,11.45
2023-03-13T06:56:15.845Z,5.13
2023-03-13T07:01:20.184Z,4.55
2023-03-13T07:06:24.724Z,6.85
2023-03-13T07:11:27.554Z,6.63
2023-03-13T07:16:31.885Z,4.78
2023-03-13T07:21:34.748Z,6.57
2023-03-13T07:26:37.672Z,6.85
2023-03-13T07:31:41.932Z,6.93
2023-03-13T07:36:44.889Z,6.85
2023-03-13T07:41:47.814Z,6.50
2023-03-13T07:46:52.088Z,6.28
2023-03-13T07:51:55.004Z,7.18
2023-03-13T07:56:57.815Z,4.97
2023-03-13T08:02:02.650Z,5.32
2023-03-13T08:07:09.513Z,6.45
2023-03-13T08:12:12.409Z,6.43
2023-03-13T08:17:16.600Z,5.78
2023-03-13T08:22:19.408Z,4.90
2023-03-13T08:27:22.257Z,4.97
2023-03-13T08:32:26.512Z,4.95
2023-03-13T08:37:29.410Z,8.70
2023-03-13T08:42:32.263Z,12.05
2023-03-13T08:47:36.497Z,10.93
2023-03-13T08:52:39.345Z,9.93
2023-03-13T08:57:42.162Z,6.03
2023-03-13T09:02:46.475Z,9.07
2023-03-13T09:07:49.754Z,9.38
2023-03-13T09:12:52.562Z,10.85
2023-03-13T09:17:56.770Z,10.70
2023-03-13T09:22:59.596Z,13.13
2023-03-13T09:28:02.398Z,5.50
2023-03-13T09:33:06.688Z,9.10
2023-03-13T09:38:09.597Z,8.10
2023-03-13T09:43:25.882Z,6.47
2023-03-13T09:48:34.765Z,6.78
2023-03-13T09:53:42.702Z,7.40
2023-03-13T09:58:52.858Z,5.90
2023-03-13T10:04:05.631Z,5.50
2023-03-13T10:09:20.242Z,6.55
2023-03-13T10:14:30.940Z,6.35
2023-03-13T10:19:38.423Z,4.95
2023-03-13T10:24:47.850Z,4.43
2023-03-13T10:29:50.782Z,6.13
2023-03-13T10:34:58.381Z,3.47
2023-03-13T10:40:15.754Z,7.40
2023-03-13T10:45:24.994Z,4.22
2023-03-13T10:50:34.567Z,3.88
2023-03-13T10:55:43.893Z,3.60
2023-03-13T11:00:46.937Z,3.78
2023-03-13T11:05:58.942Z,4.13
2023-03-13T11:11:03.669Z,3.50
2023-03-13T11:16:18.983Z,2.40
2023-03-13T11:21:31.064Z,3.58
2023-03-13T11:26:37.961Z,3.85
2023-03-13T11:31:43.503Z,2.75
2023-03-13T11:36:53.667Z,2.92
2023-03-13T11:42:01.391Z,2.67
2023-03-13T11:47:19.832Z,3.40
2023-03-13T11:52:36.615Z,3.50
2023-03-13T11:57:45.135Z,3.05
2023-03-13T12:02:52.837Z,3.25
2023-03-13T12:08:03.548Z,2.00
2023-03-13T12:13:12.887Z,2.58
2023-03-13T12:18:20.293Z,3.25
2023-03-13T12:23:30.020Z,2.17
2023-03-13T12:28:38.633Z,1.90
2023-03-13T12:33:46.316Z,5.45
2023-03-13T12:38:56.553Z,4.05
2023-03-13T12:44:09.200Z,1.83
2023-03-13T12:49:48.403Z,2.13
2023-03-13T12:55:03.602Z,2.28
2023-03-13T13:00:17.732Z,1.88
2023-03-13T13:05:22.940Z,3.40
2023-03-13T13:10:28.474Z,2.47
2023-03-13T13:15:31.651Z,4.47
2023-03-13T13:20:46.466Z,3.67
2023-03-13T13:25:51.555Z,3.28
2023-03-13T13:30:56.583Z,2.28
2023-03-13T13:36:30.814Z,2.72
2023-03-13T13:41:41.169Z,2.45
2023-03-13T13:46:46.761Z,1.77
2023-03-13T13:52:38.146Z,1.77
2023-03-13T13:57:44.097Z,2.55
2023-03-13T14:02:52.012Z,3.33
2023-03-13T14:08:01.517Z,2.03
2023-03-13T14:13:13.913Z,1.60
2023-03-13T14:18:24.574Z,1.92
2023-03-13T14:23:34.757Z,4.40
2023-03-13T14:28:41.976Z,2.30
2023-03-13T14:33:44.856Z,3.00
2023-03-13T14:38:55.723Z,2.38
2023-03-13T14:44:06.331Z,3.13
2023-03-13T14:49:15.919Z,1.95
2023-03-13T14:54:31.173Z,1.50
2023-03-13T14:59:35.470Z,2.00
2023-03-13T15:04:52.719Z,2.20
2023-03-13T15:09:55.676Z,1.77
2023-03-13T15:14:59.867Z,1.90
2023-03-13T15:20:02.932Z,1.63
2023-03-13T15:25:15.487Z,2.80
2023-03-13T15:30:23.847Z,1.50
2023-03-13T15:35:30.157Z,1.60
2023-03-13T15:40:33.071Z,2.17
2023-03-13T15:45:38.872Z,2.13
2023-03-13T15:50:41.748Z,2.03
2023-03-13T15:55:44.592Z,2.67
2023-03-13T16:00:49.324Z,2.45
2023-03-13T16:05:53.033Z,2.90
2023-03-13T16:10:56.732Z,1.75
2023-03-13T16:16:00.899Z,2.13
2023-03-13T16:21:03.726Z,1.35
2023-03-13T16:26:11.572Z,1.83
2023-03-13T16:31:20.229Z,4.15
2023-03-13T16:36:25.142Z,3.08
2023-03-13T16:41:29.266Z,1.52
2023-03-13T16:46:37.138Z,2.40
2023-03-13T16:51:41.015Z,5.90
2023-03-13T16:56:44.997Z,11.23
2023-03-13T17:01:49.431Z,28.00
2023-03-13T17:06:52.892Z,35.15
2023-03-13T17:11:55.811Z,42.40
2023-03-13T17:17:00.254Z,45.40
2023-03-13T17:22:03.952Z,51.83
2023-03-13T17:27:11.066Z,48.05
2023-03-13T17:32:16.198Z,54.78
2023-03-13T17:37:20.801Z,38.55
2023-03-13T17:42:23.673Z,43.70
2023-03-13T17:47:28.697Z,40.17
2023-03-13T17:52:31.695Z,41.65
2023-03-13T17:57:34.727Z,44.42
2023-03-13T18:02:39.109Z,42.90
2023-03-13T18:07:44.218Z,38.20
2023-03-13T18:12:47.872Z,53.63
2023-03-13T18:17:52.816Z,44.88
2023-03-13T18:22:59.601Z,42.35
2023-03-13T18:28:02.630Z,34.92
2023-03-13T18:33:06.852Z,35.88
2023-03-13T18:38:13.776Z,28.17
2023-03-13T18:43:16.609Z,27.20
2023-03-13T18:48:20.772Z,29.08
2023-03-13T18:53:26.056Z,25.02
2023-03-13T18:58:29.094Z,21.92
2023-03-13T19:03:33.285Z,22.20
2023-03-13T19:08:36.142Z,19.80
2023-03-13T19:13:38.978Z,23.50
2023-03-13T19:18:43.890Z,22.70
2023-03-13T19:23:46.878Z,21.88
2023-03-13T19:28:49.743Z,20.10
2023-03-13T19:33:54.412Z,17.20
2023-03-13T19:38:57.232Z,17.33
2023-03-13T19:44:00.109Z,18.52
2023-03-13T19:49:05.067Z,15.15
2023-03-13T19:54:10.243Z,17.98
2023-03-13T19:59:16.522Z,15.73
2023-03-13T20:04:20.716Z,15.77
2023-03-13T20:09:23.745Z,12.95
2023-03-13T20:14:26.569Z,13.52
2023-03-13T20:19:30.773Z,15.93
2023-03-13T20:24:34.369Z,14.10
2023-03-13T20:29:37.235Z,16.45
2023-03-13T20:34:41.415Z,12.43
2023-03-13T20:39:44.261Z,10.77
2023-03-13T20:44:47.082Z,11.65
2023-03-13T20:49:51.289Z,12.20
2023-03-13T20:54:54.244Z,11.50
2023-03-13T20:59:57.175Z,9.70
2023-03-13T21:05:01.424Z,13.38
2023-03-13T21:10:05.093Z,13.32
2023-03-13T21:15:09.780Z,10.68
2023-03-13T21:20:14.609Z,9.32
2023-03-13T21:25:18.535Z,8.80
2023-03-13T21:30:22.672Z,7.60
2023-03-13T21:35:27.349Z,8.55
2023-03-13T21:40:30.275Z,6.57
2023-03-13T21:45:34.786Z,7.50
2023-03-13T21:50:39.033Z,10.18
2023-03-13T21:55:41.841Z,5.60
2023-03-13T22:00:44.863Z,8.60
2023-03-13T22:05:49.430Z,9.98
2023-03-13T22:10:54.819Z,7.85
2023-03-13T22:15:57.706Z,8.75
2023-03-13T22:21:01.950Z,6.13
2023-03-13T22:26:05.052Z,5.38
2023-03-13T22:31:08.926Z,5.82
2023-03-13T22:36:14.025Z,5.70
2023-03-13T22:41:18.267Z,7.13
2023-03-13T22:46:21.090Z,5.30
2023-03-13T22:51:25.226Z,5.88
2023-03-13T22:56:28.070Z,4.28
2023-03-13T23:01:31.118Z,12.32
2023-03-13T23:06:35.289Z,6.45
2023-03-13T23:11:38.436Z,4.93
2023-03-13T23:16:41.292Z,9.23
2023-03-13T23:21:45.444Z,5.65
2023-03-13T23:26:48.354Z,6.45
2023-03-13T23:31:52.750Z,5.30
2023-03-13T23:36:57.967Z,4.45
2023-03-13T23:42:00.822Z,3.35
2023-03-13T23:47:03.688Z,4.65
2023-03-13T23:52:08.865Z,4.68
2023-03-13T23:57:11.703Z,3.65
